Time;durP1;ratioP1;P1;durP2;ratioP2;P2;SDS_P1;SDS_P2;PMS_P1;PMS_P2;Temp;Humidity;BMP_temperature;BMP_pressure;BME280_temperature;BME280_humidity;BME280_pressure;Samples;Min_cycle;Max_cycle;Signal;HPM_P1;HPM_P2
2021/01/20 00:00:47;;;;;;;296.27;70.53;;;;;;;-12.50;53.91;100832.00;1685409;84;21925;-67
2021/01/20 00:03:15;;;;;;;290.87;71.60;;;;;;;-12.46;54.20;100831.92;1685500;85;21249;-66
2021/01/20 00:05:42;;;;;;;405.52;95.40;;;;;;;-12.38;54.20;100836.53;1685600;84;21154;-65
2021/01/20 00:08:10;;;;;;;339.88;83.67;;;;;;;-12.32;54.07;100842.99;1700183;84;21841;-66
2021/01/20 00:10:37;;;;;;;247.30;65.17;;;;;;;-12.30;53.80;100847.77;1671275;84;21177;-65
2021/01/20 00:13:05;;;;;;;202.50;54.73;;;;;;;-12.40;53.79;100847.13;1671431;85;21455;-67
2021/01/20 00:15:32;;;;;;;137.40;40.78;;;;;;;-12.41;53.85;100844.53;1671312;85;21937;-67
2021/01/20 00:18:00;;;;;;;125.53;37.05;;;;;;;-12.37;54.08;100845.72;1699004;84;21476;-67
2021/01/20 00:20:28;;;;;;;149.67;44.33;;;;;;;-12.27;54.13;100836.67;1690860;82;21402;-64
2021/01/20 00:22:56;;;;;;;165.57;47.20;;;;;;;-12.15;54.11;100845.15;1671312;85;21338;-67
2021/01/20 00:25:23;;;;;;;158.00;48.40;;;;;;;-12.08;53.89;100842.28;1671263;85;21980;-65
2021/01/20 00:27:51;;;;;;;139.67;40.17;;;;;;;-12.07;53.47;100833.91;1671148;85;21507;-65
2021/01/20 00:30:19;;;;;;;110.70;34.73;;;;;;;-12.13;53.54;100830.98;1671243;85;22006;-66
2021/01/20 00:32:46;;;;;;;115.47;37.67;;;;;;;-12.10;53.59;100836.64;1671270;84;21459;-66
2021/01/20 00:35:14;;;;;;;133.43;40.57;;;;;;;-12.05;53.46;100834.73;1671560;85;21233;-64
2021/01/20 00:37:42;;;;;;;120.47;37.17;;;;;;;-12.06;53.13;100835.19;1671284;85;21419;-66
2021/01/20 00:40:10;;;;;;;92.90;28.27;;;;;;;-12.28;52.90;100832.30;1671197;84;21481;-66
2021/01/20 00:42:37;;;;;;;102.17;31.83;;;;;;;-12.46;53.04;100836.74;1671302;85;21183;-67
2021/01/20 00:45:06;;;;;;;106.17;33.67;;;;;;;-12.71;53.26;100835.23;1671246;85;21388;-66
2021/01/20 00:47:34;;;;;;;101.10;31.33;;;;;;;-12.80;53.75;100842.06;1671299;85;21382;-67
2021/01/20 00:50:04;;;;;;;100.10;31.67;;;;;;;-12.80;54.02;100838.11;1671300;85;21300;-68
2021/01/20 00:52:32;;;;;;;107.67;33.55;;;;;;;-12.76;54.28;100829.66;1671361;85;21228;-66
2021/01/20 00:54:59;;;;;;;108.70;33.43;;;;;;;-12.71;54.37;100831.27;1671189;85;21492;-66
2021/01/20 00:57:27;;;;;;;113.03;32.20;;;;;;;-12.66;54.58;100828.05;1671144;84;21343;-65
2021/01/20 00:59:54;;;;;;;115.63;35.43;;;;;;;-12.58;54.68;100827.84;1671288;85;21788;-65
2021/01/20 01:02:23;;;;;;;141.67;44.30;;;;;;;-12.51;54.67;100821.49;1671633;85;21236;-66
2021/01/20 01:04:50;;;;;;;135.55;39.08;;;;;;;-12.39;54.57;100826.87;1671349;85;21453;-67
2021/01/20 01:07:18;;;;;;;112.08;34.73;;;;;;;-12.27;54.32;100829.20;1671317;85;21252;-65
2021/01/20 01:09:46;;;;;;;104.05;31.57;;;;;;;-12.23;54.10;100832.17;1671217;85;21428;-65
2021/01/20 01:12:15;;;;;;;110.03;32.73;;;;;;;-12.22;53.85;100831.26;1667734;85;21325;-65
2021/01/20 01:14:42;;;;;;;105.52;33.05;;;;;;;-12.38;53.73;100830.80;1671286;85;21432;-65
2021/01/20 01:17:15;;;;;;;96.72;31.60;;;;;;;-12.42;53.94;100837.52;1670779;85;21193;-67
2021/01/20 01:19:44;;;;;;;98.63;31.57;;;;;;;-12.34;54.03;100834.25;1670171;84;21222;-66
2021/01/20 01:22:12;;;;;;;110.32;34.38;;;;;;;-12.32;53.93;100830.66;1671372;85;21185;-66
2021/01/20 01:24:40;;;;;;;116.88;36.25;;;;;;;-12.33;53.92;100833.34;1671380;85;21428;-66
2021/01/20 01:27:08;;;;;;;127.25;39.33;;;;;;;-12.38;53.99;100827.29;1671499;85;21796;-67
2021/01/20 01:29:36;;;;;;;122.47;36.73;;;;;;;-12.44;53.83;100818.23;1671482;85;21392;-67
2021/01/20 01:32:06;;;;;;;122.57;36.27;;;;;;;-12.64;53.87;100822.28;1670551;84;22021;-66
2021/01/20 01:34:36;;;;;;;118.97;36.80;;;;;;;-12.66;53.95;100825.41;1672272;85;21315;-67
2021/01/20 01:37:05;;;;;;;104.37;33.67;;;;;;;-12.63;53.89;100824.47;1672218;85;21189;-65
2021/01/20 01:39:51;;;;;;;95.70;30.40;;;;;;;-12.61;53.77;100827.47;1672147;84;22048;-66
2021/01/20 01:42:28;;;;;;;106.10;32.10;;;;;;;-12.68;53.75;100824.59;1672247;84;21478;-65
2021/01/20 01:44:56;;;;;;;93.93;30.97;;;;;;;-12.85;53.84;100818.91;1672198;85;21442;-66
2021/01/20 01:47:24;;;;;;;101.97;30.80;;;;;;;-12.91;54.29;100821.70;1672209;84;21319;-66
2021/01/20 01:49:56;;;;;;;107.50;32.17;;;;;;;-12.82;54.40;100826.28;1671639;84;21411;-65
2021/01/20 01:52:24;;;;;;;109.50;34.53;;;;;;;-12.73;54.40;100832.22;1672264;85;21402;-67
2021/01/20 01:55:11;;;;;;;102.80;32.80;;;;;;;-12.68;54.38;100831.64;1672502;85;21237;-67
2021/01/20 01:57:57;;;;;;;103.30;32.93;;;;;;;-12.66;54.33;100837.29;1672356;85;21977;-66
2021/01/20 02:00:26;;;;;;;119.37;35.17;;;;;;;-12.64;54.44;100837.25;1648688;85;21223;-66
2021/01/20 02:03:07;;;;;;;111.37;35.20;;;;;;;-12.63;54.48;100838.98;1671004;85;21220;-66
2021/01/20 02:05:36;;;;;;;111.57;34.47;;;;;;;-12.65;54.49;100835.06;1672630;85;21201;-65
2021/01/20 02:08:06;;;;;;;117.13;35.73;;;;;;;-12.63;54.56;100828.42;1672640;85;21193;-66
2021/01/20 02:10:36;;;;;;;114.63;36.13;;;;;;;-12.69;54.64;100822.00;1671924;85;21170;-66
2021/01/20 02:13:34;;;;;;;127.03;40.63;;;;;;;-12.71;54.76;100819.85;1672386;84;21224;-65
2021/01/20 02:16:25;;;;;;;101.90;29.27;;;;;;;-12.73;54.74;100819.89;1635092;85;21432;-67
2021/01/20 02:18:54;;;;;;;122.63;37.07;;;;;;;-12.73;54.43;100821.22;1672094;85;21229;-65
2021/01/20 02:21:43;;;;;;;121.93;37.23;;;;;;;-12.95;54.18;100820.05;1671962;84;21463;-66
2021/01/20 02:24:44;;;;;;;119.20;34.27;;;;;;;-13.15;54.51;100817.89;1672602;85;21240;-65
2021/01/20 02:27:43;;;;;;;107.47;32.87;;;;;;;-13.22;54.94;100818.53;1641006;87;21225;-67
2021/01/20 02:30:12;;;;;;;116.43;34.27;;;;;;;-13.16;55.19;100821.44;1648556;85;21921;-66
2021/01/20 02:32:46;;;;;;;121.60;37.03;;;;;;;-13.14;55.23;100823.58;1647921;85;21469;-66
2021/01/20 02:35:14;;;;;;;129.23;37.83;;;;;;;-13.10;55.28;100830.50;1671524;85;21484;-66
2021/01/20 02:37:41;;;;;;;111.73;35.77;;;;;;;-13.04;55.26;100829.48;1671461;85;21786;-67
2021/01/20 02:40:23;;;;;;;116.37;34.70;;;;;;;-13.00;55.23;100838.62;1652472;85;21356;-63
2021/01/20 02:42:58;;;;;;;119.47;34.43;;;;;;;-12.94;55.24;100841.11;1670047;85;21928;-65
2021/01/20 02:45:27;;;;;;;124.70;35.93;;;;;;;-12.90;55.11;100840.58;1670699;85;21188;-64
2021/01/20 02:47:56;;;;;;;122.77;38.17;;;;;;;-12.90;55.10;100837.94;1671728;85;21343;-65
2021/01/20 02:50:24;;;;;;;108.87;33.97;;;;;;;-12.87;55.16;100841.81;1671571;85;21434;-65
2021/01/20 02:53:15;;;;;;;112.00;32.70;;;;;;;-12.81;55.12;100840.34;1671412;85;21932;-65
2021/01/20 02:56:03;;;;;;;108.97;34.07;;;;;;;-12.77;54.99;100835.39;1671566;85;21257;-66
2021/01/20 02:58:51;;;;;;;105.60;32.67;;;;;;;-12.75;54.88;100843.27;1670784;84;22087;-66
2021/01/20 03:01:31;;;;;;;114.88;32.55;;;;;;;-12.76;54.82;100850.31;1642944;85;21962;-67
2021/01/20 03:03:59;;;;;;;104.43;33.27;;;;;;;-12.82;54.78;100850.02;1615617;85;21416;-64
2021/01/20 03:06:27;;;;;;;99.95;33.10;;;;;;;-12.85;54.87;100850.10;1671593;85;21192;-65
2021/01/20 03:08:55;;;;;;;111.30;34.88;;;;;;;-12.83;54.81;100856.20;1671490;85;21896;-65
2021/01/20 03:11:23;;;;;;;108.57;33.53;;;;;;;-12.83;54.68;100853.56;1622966;85;21177;-65
2021/01/20 03:13:50;;;;;;;108.50;35.03;;;;;;;-12.81;54.64;100861.44;1671333;85;21205;-65
2021/01/20 03:16:22;;;;;;;108.53;32.67;;;;;;;-12.85;54.51;100863.29;1671371;84;21265;-66
2021/01/20 03:18:49;;;;;;;101.53;30.67;;;;;;;-12.91;54.40;100867.86;1671324;85;22113;-66
2021/01/20 03:21:17;;;;;;;112.92;33.10;;;;;;;-13.00;54.43;100871.59;1671353;84;22036;-65
2021/01/20 03:23:44;;;;;;;98.33;31.77;;;;;;;-13.02;54.58;100867.23;1671416;85;21240;-65
2021/01/20 03:26:11;;;;;;;99.03;32.87;;;;;;;-12.97;54.64;100868.02;1671354;85;21185;-65
2021/01/20 03:28:39;;;;;;;106.57;31.90;;;;;;;-12.94;54.63;100872.75;1644225;85;21201;-65
2021/01/20 03:31:06;;;;;;;99.00;30.77;;;;;;;-12.91;54.67;100870.49;1671204;85;21327;-64
2021/01/20 03:33:33;;;;;;;103.07;32.07;;;;;;;-12.88;54.56;100863.38;1671726;84;21215;-66
2021/01/20 03:36:00;;;;;;;100.57;31.73;;;;;;;-12.88;54.47;100873.05;1671994;85;21166;-66
2021/01/20 03:38:28;;;;;;;94.03;30.33;;;;;;;-12.93;54.29;100871.85;1672040;85;21435;-67
2021/01/20 03:40:55;;;;;;;102.70;31.67;;;;;;;-12.98;54.38;100870.23;1671905;85;21316;-67
2021/01/20 03:43:22;;;;;;;96.43;30.23;;;;;;;-12.94;54.45;100869.25;1672038;85;21212;-66
2021/01/20 03:45:50;;;;;;;89.87;31.17;;;;;;;-12.94;54.38;100869.25;1672018;85;21169;-65
2021/01/20 03:48:17;;;;;;;102.77;33.50;;;;;;;-12.95;54.26;100866.20;1672083;84;21315;-66
2021/01/20 03:50:45;;;;;;;107.93;32.50;;;;;;;-13.03;54.24;100857.13;1672102;85;21323;-66
2021/01/20 03:53:12;;;;;;;109.30;32.70;;;;;;;-13.06;54.46;100857.66;1672136;85;21197;-66
2021/01/20 03:55:39;;;;;;;110.97;33.83;;;;;;;-13.05;54.43;100862.90;1672098;85;21203;-67
2021/01/20 03:58:06;;;;;;;109.93;32.87;;;;;;;-13.19;54.41;100856.68;1672044;85;21229;-65
2021/01/20 04:00:34;;;;;;;107.70;34.83;;;;;;;-13.22;54.61;100858.08;1672012;85;21167;-64
2021/01/20 04:03:02;;;;;;;109.27;33.93;;;;;;;-13.25;54.64;100854.64;1672055;85;21492;-65
2021/01/20 04:05:32;;;;;;;128.13;39.17;;;;;;;-13.24;54.75;100842.75;1669849;85;21184;-66
2021/01/20 04:07:59;;;;;;;116.60;36.50;;;;;;;-13.20;54.73;100841.77;1672013;85;21915;-65
2021/01/20 04:10:27;;;;;;;110.00;33.90;;;;;;;-13.22;54.67;100842.26;1672191;85;21379;-66
2021/01/20 04:12:55;;;;;;;125.80;38.67;;;;;;;-13.27;54.71;100841.50;1672180;84;21333;-65
2021/01/20 04:15:22;;;;;;;128.10;38.13;;;;;;;-13.32;54.68;100846.47;1671963;85;21567;-65
2021/01/20 04:17:50;;;;;;;124.37;36.73;;;;;;;-13.38;54.83;100836.95;1672133;85;21436;-65
2021/01/20 04:20:17;;;;;;;111.63;35.83;;;;;;;-13.37;55.01;100833.41;1678790;84;21573;-66
2021/01/20 04:22:44;;;;;;;120.80;36.33;;;;;;;-13.32;55.04;100828.03;1685656;84;21348;-65
2021/01/20 04:25:12;;;;;;;124.67;36.70;;;;;;;-13.27;55.08;100824.38;1666135;86;21444;-65
2021/01/20 04:27:40;;;;;;;111.47;36.80;;;;;;;-13.23;54.98;100819.89;1674576;84;21255;-64
2021/01/20 04:30:09;;;;;;;117.20;37.40;;;;;;;-13.21;54.96;100822.03;1691260;84;21430;-66
2021/01/20 04:32:36;;;;;;;102.80;33.00;;;;;;;-13.24;54.90;100824.75;1676453;84;21467;-65
2021/01/20 04:35:06;;;;;;;102.43;31.83;;;;;;;-13.32;54.89;100831.53;1685460;84;21392;-65
2021/01/20 04:37:33;;;;;;;89.07;31.03;;;;;;;-13.40;55.11;100833.48;1676023;84;21983;-66
2021/01/20 04:40:01;;;;;;;101.13;33.83;;;;;;;-13.46;55.41;100833.63;1679016;84;21158;-65
2021/01/20 04:42:29;;;;;;;106.00;31.90;;;;;;;-13.47;55.65;100833.22;1683458;84;21161;-64
2021/01/20 04:44:56;;;;;;;112.37;32.50;;;;;;;-13.46;55.81;100838.90;1685152;84;21173;-64
2021/01/20 04:47:23;;;;;;;100.90;30.67;;;;;;;-13.47;55.88;100839.80;1686068;84;21548;-66
2021/01/20 04:49:51;;;;;;;100.47;31.30;;;;;;;-13.53;56.03;100842.13;1693618;84;21492;-64
2021/01/20 04:52:19;;;;;;;96.07;28.07;;;;;;;-13.53;56.22;100839.95;1677286;84;21951;-65
2021/01/20 04:54:47;;;;;;;84.73;27.17;;;;;;;-13.52;56.33;100841.68;1685557;85;21203;-68
2021/01/20 04:57:14;;;;;;;93.17;28.97;;;;;;;-13.58;56.57;100847.09;1685444;85;21406;-65
2021/01/20 04:59:42;;;;;;;86.27;28.20;;;;;;;-13.54;56.80;100854.02;1685639;85;21399;-65
2021/01/20 05:02:10;;;;;;;82.93;26.43;;;;;;;-13.51;56.85;100862.72;1685762;85;21467;-64
2021/01/20 05:04:41;;;;;;;102.70;30.87;;;;;;;-13.52;56.88;100859.67;1685529;85;21418;-64
2021/01/20 05:07:09;;;;;;;90.40;27.27;;;;;;;-13.59;56.86;100861.16;1685681;85;21199;-65
2021/01/20 05:09:37;;;;;;;91.37;29.73;;;;;;;-13.58;56.97;100860.27;1685687;84;21864;-64
2021/01/20 05:12:06;;;;;;;100.53;29.80;;;;;;;-13.55;56.92;100862.38;1685562;85;21778;-65
2021/01/20 05:14:39;;;;;;;90.17;29.23;;;;;;;-13.53;56.93;100864.98;1685732;85;21465;-65
2021/01/20 05:17:07;;;;;;;90.50;26.20;;;;;;;-13.51;56.86;100863.17;1685700;85;21482;-64
2021/01/20 05:19:39;;;;;;;93.30;29.83;;;;;;;-13.54;56.66;100867.20;1685747;85;21210;-65
2021/01/20 05:22:11;;;;;;;100.40;30.60;;;;;;;-13.63;56.77;100868.27;1685585;84;21136;-64
2021/01/20 05:24:38;;;;;;;101.10;30.67;;;;;;;-13.61;56.88;100870.87;1685668;84;21171;-64
2021/01/20 05:27:07;;;;;;;91.77;28.67;;;;;;;-13.58;56.86;100870.80;1685665;85;21998;-64
2021/01/20 05:29:34;;;;;;;88.20;28.33;;;;;;;-13.54;56.70;100872.47;1685737;84;21446;-65
2021/01/20 05:32:17;;;;;;;101.87;30.33;;;;;;;-13.58;56.67;100866.41;1685665;85;21445;-68
2021/01/20 05:35:00;;;;;;;84.80;26.93;;;;;;;-13.56;56.64;100872.95;1688171;84;21234;-66
2021/01/20 05:37:28;;;;;;;106.10;31.90;;;;;;;-13.55;56.32;100878.64;1688425;84;21172;-64
2021/01/20 05:40:07;;;;;;;99.23;29.23;;;;;;;-13.62;56.14;100875.73;1688332;84;21484;-66
2021/01/20 05:42:51;;;;;;;48.00;17.37;;;;;;;-13.70;56.17;100877.63;1688468;85;21592;-65
2021/01/20 05:45:22;;;;;;;96.87;27.47;;;;;;;-13.77;56.04;100883.48;1688436;85;21470;-65
2021/01/20 05:48:10;;;;;;;103.07;32.03;;;;;;;-14.08;55.96;100891.17;1688154;85;21509;-65
2021/01/20 05:50:55;;;;;;;81.13;25.77;;;;;;;-14.39;56.25;100893.95;1688318;85;21433;-64
2021/01/20 05:53:22;;;;;;;94.13;29.70;;;;;;;-14.55;56.94;100900.86;1688014;84;21909;-65
2021/01/20 05:56:04;;;;;;;106.83;32.43;;;;;;;-14.54;57.28;100902.59;1688444;85;21567;-65
2021/01/20 05:58:39;;;;;;;108.33;35.00;;;;;;;-14.50;57.61;100906.90;1688404;85;21398;-65
2021/01/20 06:01:11;;;;;;;104.67;32.77;;;;;;;-14.36;57.88;100899.16;1688331;85;21191;-67
2021/01/20 06:03:38;;;;;;;146.50;45.67;;;;;;;-14.18;57.91;100904.09;1688410;85;21433;-66
2021/01/20 06:06:06;;;;;;;143.50;42.87;;;;;;;-14.06;57.73;100905.16;1688298;85;21422;-64
2021/01/20 06:08:35;;;;;;;143.43;43.80;;;;;;;-13.97;57.66;100904.97;1688347;84;21453;-66
2021/01/20 06:11:04;;;;;;;97.97;31.47;;;;;;;-13.88;57.62;100902.15;1688336;85;21448;-64
2021/01/20 06:13:32;;;;;;;93.10;29.33;;;;;;;-13.77;57.60;100902.78;1688384;85;21437;-66
2021/01/20 06:16:16;;;;;;;92.53;30.27;;;;;;;-13.67;57.63;100898.19;1688428;85;21419;-66
2021/01/20 06:19:02;;;;;;;104.73;31.00;;;;;;;-13.57;57.63;100893.61;1680460;85;21325;-64
2021/01/20 06:21:30;;;;;;;100.73;30.47;;;;;;;-13.49;57.47;100892.53;1688522;85;21151;-64
2021/01/20 06:24:14;;;;;;;105.03;33.07;;;;;;;-13.45;57.49;100885.43;1663121;85;21871;-65
2021/01/20 06:26:47;;;;;;;90.10;31.20;;;;;;;-13.40;57.45;100888.83;1688236;85;21413;-65
2021/01/20 06:29:15;;;;;;;85.07;28.37;;;;;;;-13.36;57.53;100893.12;1688293;84;21470;-66
2021/01/20 06:31:44;;;;;;;122.07;40.47;;;;;;;-13.29;57.42;100893.39;1688360;85;21174;-66
2021/01/20 06:34:12;;;;;;;120.97;35.97;;;;;;;-13.31;57.49;100905.73;1688384;85;21417;-67
2021/01/20 06:36:39;;;;;;;125.17;37.53;;;;;;;-13.27;57.61;100906.53;1688439;85;21916;-66
2021/01/20 06:39:31;;;;;;;122.53;35.40;;;;;;;-13.26;57.62;100902.55;1688482;84;21473;-66
2021/01/20 06:42:00;;;;;;;121.23;37.80;;;;;;;-13.23;57.66;100908.20;1688477;85;21235;-67
2021/01/20 06:44:29;;;;;;;104.87;30.53;;;;;;;-13.24;57.70;100903.38;1688470;84;21188;-65
2021/01/20 06:47:00;;;;;;;94.03;28.77;;;;;;;-13.18;57.86;100906.31;1688443;85;21393;-67
2021/01/20 06:49:30;;;;;;;97.53;30.47;;;;;;;-13.12;57.85;100910.09;1688485;85;21184;-66
2021/01/20 06:52:13;;;;;;;86.57;29.03;;;;;;;-13.08;57.91;100907.80;1688541;85;21301;-68
2021/01/20 06:54:45;;;;;;;125.20;37.77;;;;;;;-13.00;57.84;100907.19;1688451;84;21186;-64
2021/01/20 06:57:30;;;;;;;214.07;52.60;;;;;;;-12.97;57.87;100909.75;1688495;85;22016;-65
2021/01/20 07:00:17;;;;;;;112.17;33.47;;;;;;;-12.91;57.96;100910.05;1688428;85;21192;-65
2021/01/20 07:02:59;;;;;;;97.53;29.20;;;;;;;-12.82;57.73;100913.33;1688540;85;21151;-65
2021/01/20 07:05:39;;;;;;;92.50;29.80;;;;;;;-12.82;57.71;100912.47;1688430;85;21374;-66
2021/01/20 07:08:08;;;;;;;109.40;37.27;;;;;;;-12.78;57.57;100915.44;1688601;84;21881;-68
2021/01/20 07:11:01;;;;;;;102.93;33.37;;;;;;;-12.77;57.61;100930.36;1688483;85;21481;-65
2021/01/20 07:13:34;;;;;;;89.07;30.40;;;;;;;-12.68;57.55;100927.95;1688449;85;21210;-65
2021/01/20 07:16:01;;;;;;;89.53;29.40;;;;;;;-12.61;57.38;100934.34;1688653;85;21557;-67
2021/01/20 07:18:29;;;;;;;91.63;29.07;;;;;;;-12.59;57.31;100930.34;1662918;85;21211;-66
2021/01/20 07:20:57;;;;;;;81.60;26.97;;;;;;;-12.54;57.30;100935.92;1641036;85;21341;-68
2021/01/20 07:23:24;;;;;;;120.53;38.10;;;;;;;-12.45;57.15;100934.81;1688486;84;21187;-67
2021/01/20 07:25:53;;;;;;;118.17;36.20;;;;;;;-12.41;57.15;100936.47;1688288;85;21550;-66
2021/01/20 07:28:21;;;;;;;92.33;28.73;;;;;;;-12.33;56.93;100934.52;1688395;84;21510;-66
2021/01/20 07:30:49;;;;;;;87.97;30.70;;;;;;;-12.31;56.79;100931.84;1688457;84;21183;-67
2021/01/20 07:33:23;;;;;;;90.10;29.27;;;;;;;-12.31;56.70;100930.06;1688297;84;21407;-68
2021/01/20 07:35:51;;;;;;;84.13;26.87;;;;;;;-12.27;56.77;100934.81;1685751;85;21402;-69
2021/01/20 07:38:18;;;;;;;82.90;25.87;;;;;;;-12.21;56.72;100941.25;1685691;84;21171;-65
2021/01/20 07:40:46;;;;;;;79.20;26.27;;;;;;;-12.15;56.67;100938.44;1685547;84;21474;-68
2021/01/20 07:43:21;;;;;;;84.17;25.93;;;;;;;-12.06;56.63;100942.60;1685643;85;21179;-66
2021/01/20 07:45:48;;;;;;;84.95;27.13;;;;;;;-11.96;56.54;100939.66;1685790;84;21301;-67
2021/01/20 07:48:17;;;;;;;75.37;24.63;;;;;;;-11.90;56.42;100937.30;1685685;85;21459;-67
2021/01/20 07:50:47;;;;;;;85.50;27.37;;;;;;;-11.85;56.25;100938.91;1685830;84;21458;-68
2021/01/20 07:53:19;;;;;;;99.45;31.60;;;;;;;-11.83;56.21;100945.92;1685773;85;21707;-68
2021/01/20 07:55:47;;;;;;;90.80;26.60;;;;;;;-11.82;56.12;100948.52;1685862;85;21396;-66
2021/01/20 07:58:15;;;;;;;80.07;26.68;;;;;;;-11.85;56.04;100951.25;1658231;85;21915;-67
2021/01/20 08:00:47;;;;;;;73.75;23.95;;;;;;;-11.86;56.09;100957.44;1685564;84;21374;-67
2021/01/20 08:03:32;;;;;;;82.45;24.75;;;;;;;-11.82;56.23;100952.48;1685646;85;21168;-66
2021/01/20 08:06:02;;;;;;;84.72;24.57;;;;;;;-11.77;56.25;100958.95;1685748;85;21232;-68
2021/01/20 08:08:30;;;;;;;76.00;25.45;;;;;;;-11.73;56.33;100960.56;1685657;85;21445;-67
2021/01/20 08:11:00;;;;;;;77.72;25.88;;;;;;;-11.61;56.35;100956.28;1685664;85;21857;-66
2021/01/20 08:13:29;;;;;;;74.40;24.50;;;;;;;-11.48;56.34;100965.59;1677620;85;21829;-66
2021/01/20 08:15:56;;;;;;;87.90;27.00;;;;;;;-11.39;56.14;100958.70;1680418;84;21961;-71
2021/01/20 08:18:24;;;;;;;85.03;26.02;;;;;;;-11.33;56.11;100956.33;1657844;86;21166;-67
2021/01/20 08:20:52;;;;;;;89.10;27.85;;;;;;;-11.26;56.03;100962.70;1674249;84;21495;-66
2021/01/20 08:23:37;;;;;;;82.62;26.37;;;;;;;-11.18;55.99;100958.96;1684972;84;21253;-67
2021/01/20 08:26:07;;;;;;;87.40;26.35;;;;;;;-11.11;55.88;100960.05;1671520;85;21182;-69
2021/01/20 08:28:34;;;;;;;71.62;23.80;;;;;;;-11.04;55.84;100959.43;1671872;85;21415;-67
2021/01/20 08:31:21;;;;;;;74.60;24.20;;;;;;;-10.92;55.77;100959.05;1644608;85;21170;-67
2021/01/20 08:33:48;;;;;;;77.73;25.73;;;;;;;-10.82;55.63;100949.03;1671607;84;21406;-67
2021/01/20 08:36:23;;;;;;;66.72;23.57;;;;;;;-10.76;55.47;100947.50;1648741;85;21192;-67
2021/01/20 08:39:08;;;;;;;75.42;23.92;;;;;;;-10.68;55.40;100945.47;1672066;85;21375;-68
2021/01/20 08:41:36;;;;;;;74.22;23.90;;;;;;;-10.66;55.24;100943.64;1672127;85;21461;-66
2021/01/20 08:44:16;;;;;;;76.12;24.02;;;;;;;-10.61;55.33;100944.35;1687054;84;21237;-67
2021/01/20 08:46:47;;;;;;;68.60;23.40;;;;;;;-10.50;55.41;100940.89;1675293;84;21186;-66
2021/01/20 08:49:18;;;;;;;74.55;23.50;;;;;;;-10.45;55.23;100947.34;1658157;84;21962;-67
2021/01/20 08:51:57;;;;;;;79.75;25.82;;;;;;;-10.41;55.20;100941.03;1690073;84;21303;-67
2021/01/20 08:54:25;;;;;;;83.27;28.15;;;;;;;-10.34;55.28;100941.27;1691365;84;21197;-68
2021/01/20 08:56:57;;;;;;;82.75;27.77;;;;;;;-10.17;55.25;100939.31;1691822;84;21724;-66
2021/01/20 08:59:25;;;;;;;94.42;33.98;;;;;;;-9.99;55.16;100936.88;1666246;84;21439;-67
2021/01/20 09:01:52;;;;;;;89.10;29.37;;;;;;;-9.85;54.97;100939.48;1645377;84;21515;-67
2021/01/20 09:04:20;;;;;;;100.42;29.87;;;;;;;-9.76;54.77;100932.52;1664738;84;21852;-71
2021/01/20 09:06:47;;;;;;;93.78;30.88;;;;;;;-9.71;54.66;100938.55;1691835;84;21849;-74
2021/01/20 09:09:15;;;;;;;83.58;29.10;;;;;;;-9.70;54.60;100930.55;1663110;84;21940;-71
2021/01/20 09:11:42;;;;;;;80.12;27.50;;;;;;;-9.66;54.45;100933.95;1693939;84;21840;-65
2021/01/20 09:14:09;;;;;;;73.25;26.35;;;;;;;-9.60;54.44;100939.89;1672172;84;21533;-71
2021/01/20 09:16:37;;;;;;;82.75;27.50;;;;;;;-9.52;54.19;100933.42;1689986;84;21294;-74
2021/01/20 09:19:04;;;;;;;74.65;25.27;;;;;;;-9.46;54.17;100930.08;1681646;84;21383;-75
2021/01/20 09:21:32;;;;;;;77.45;26.05;;;;;;;-9.39;54.09;100924.08;1681273;84;21221;-71
2021/01/20 09:23:59;;;;;;;84.37;26.87;;;;;;;-9.40;54.09;100929.84;1693945;84;21849;-74
2021/01/20 09:26:27;;;;;;;77.10;25.82;;;;;;;-9.32;54.43;100926.44;1694428;84;21177;-77
2021/01/20 09:28:54;;;;;;;69.60;23.15;;;;;;;-9.22;54.31;100932.25;1694208;84;21208;-72
2021/01/20 09:31:22;;;;;;;78.67;24.75;;;;;;;-9.19;54.32;100929.94;1692796;84;21167;-65
2021/01/20 09:33:50;;;;;;;75.72;24.15;;;;;;;-9.12;54.38;100935.41;1685494;84;21275;-66
2021/01/20 09:36:17;;;;;;;68.85;23.42;;;;;;;-8.98;54.23;100930.45;1687680;84;21244;-66
2021/01/20 09:38:45;;;;;;;72.95;25.40;;;;;;;-8.92;54.17;100929.34;1687908;84;21309;-66
2021/01/20 09:41:13;;;;;;;73.15;25.27;;;;;;;-8.84;54.16;100926.77;1686534;84;21189;-71
2021/01/20 09:43:40;;;;;;;75.72;21.90;;;;;;;-8.72;54.13;100927.59;1689587;84;21281;-72
2021/01/20 09:46:08;;;;;;;72.27;23.18;;;;;;;-8.57;53.89;100922.58;1693465;84;21194;-68
2021/01/20 09:48:35;;;;;;;68.05;22.48;;;;;;;-8.55;53.60;100918.06;1671415;85;21171;-77
2021/01/20 09:51:02;;;;;;;60.95;21.45;;;;;;;-8.59;53.56;100915.14;1671889;84;21182;-75
2021/01/20 09:53:31;;;;;;;63.60;19.60;;;;;;;-8.60;53.64;100912.95;1678111;85;21182;-75
2021/01/20 09:55:59;;;;;;;51.48;17.75;;;;;;;-8.49;53.68;100911.17;1678340;85;21218;-72
2021/01/20 09:58:27;;;;;;;57.75;18.98;;;;;;;-8.39;53.63;100901.91;1678070;85;21170;-76
2021/01/20 10:00:54;;;;;;;67.32;22.22;;;;;;;-8.33;53.63;100899.81;1677927;85;21214;-70
2021/01/20 10:03:21;;;;;;;53.38;19.60;;;;;;;-8.25;53.80;100901.28;1681879;84;21199;-73
2021/01/20 10:05:50;;;;;;;60.58;21.42;;;;;;;-8.22;53.76;100905.13;1706574;84;21244;-74
2021/01/20 10:08:17;;;;;;;54.73;17.95;;;;;;;-8.11;53.78;100905.53;1701691;84;21667;-75
2021/01/20 10:10:44;;;;;;;54.10;17.90;;;;;;;-7.95;53.62;100900.39;1691359;85;21170;-72
2021/01/20 10:13:12;;;;;;;46.10;18.20;;;;;;;-7.89;53.37;100892.14;1678713;84;21148;-73
2021/01/20 10:15:40;;;;;;;53.95;18.27;;;;;;;-7.79;53.37;100888.17;1688111;84;21220;-72
2021/01/20 10:18:08;;;;;;;52.05;17.07;;;;;;;-7.67;53.41;100888.47;1692813;84;21174;-66
2021/01/20 10:20:36;;;;;;;52.75;17.73;;;;;;;-7.55;53.25;100895.48;1690922;84;21288;-68
2021/01/20 10:23:07;;;;;;;48.08;16.20;;;;;;;-7.49;52.98;100894.73;1690693;85;21285;-68
2021/01/20 10:25:36;;;;;;;40.40;14.70;;;;;;;-7.44;52.73;100887.41;1690975;84;21944;-73
2021/01/20 10:28:04;;;;;;;50.50;17.65;;;;;;;-7.41;52.65;100889.92;1693044;84;21229;-72
2021/01/20 10:30:33;;;;;;;42.25;14.47;;;;;;;-7.36;52.81;100885.70;1696875;83;21679;-73
2021/01/20 10:33:00;;;;;;;43.73;13.88;;;;;;;-7.29;52.79;100877.83;1692463;85;21201;-71
2021/01/20 10:35:29;;;;;;;44.75;15.28;;;;;;;-7.29;52.54;100872.97;1692881;85;21165;-72
2021/01/20 10:37:57;;;;;;;88.00;26.70;;;;;;;-7.29;52.64;100878.30;1716963;83;21897;-75
2021/01/20 10:40:25;;;;;;;51.23;18.32;;;;;;;-7.29;52.71;100876.97;1709946;83;21232;-72
2021/01/20 10:42:53;;;;;;;51.70;18.05;;;;;;;-7.28;52.86;100874.23;1684134;85;21781;-75
2021/01/20 10:45:20;;;;;;;49.83;17.77;;;;;;;-7.18;52.93;100878.64;1692057;85;21186;-76
2021/01/20 10:47:48;;;;;;;47.95;16.12;;;;;;;-7.17;52.96;100871.05;1692770;84;21189;-76
2021/01/20 10:50:15;;;;;;;46.85;15.85;;;;;;;-7.07;52.86;100871.03;1692567;85;21633;-77
2021/01/20 10:52:43;;;;;;;48.30;16.23;;;;;;;-6.99;52.68;100871.98;1693037;85;21174;-72
2021/01/20 10:55:11;;;;;;;48.30;16.57;;;;;;;-6.94;52.50;100873.48;1690849;84;21235;-71
2021/01/20 10:57:38;;;;;;;46.02;15.60;;;;;;;-6.87;52.51;100875.38;1685007;84;21155;-71
2021/01/20 11:00:07;;;;;;;42.65;15.80;;;;;;;-6.72;52.54;100859.50;1701135;83;21142;-67
2021/01/20 11:02:35;;;;;;;47.05;16.27;;;;;;;-6.60;52.38;100862.02;1695404;83;21189;-81
2021/01/20 11:05:03;;;;;;;86.22;27.42;;;;;;;-6.52;52.13;100861.63;1692678;84;21186;-72
2021/01/20 11:07:30;;;;;;;73.52;26.68;;;;;;;-6.47;51.97;100859.62;1692783;84;21199;-68
2021/01/20 11:09:59;;;;;;;69.53;23.20;;;;;;;-6.40;52.07;100862.36;1683373;84;21309;-70
2021/01/20 11:12:26;;;;;;;52.70;16.65;;;;;;;-6.36;51.67;100858.59;1691531;84;21244;-69
2021/01/20 11:14:54;;;;;;;70.47;24.55;;;;;;;-6.40;51.30;100854.36;1690723;85;21915;-71